createdAt,value
2023-04-06T02:51:35.250Z,101225.09
2023-04-06T02:54:31.667Z,101230.44
2023-04-06T02:56:59.247Z,101223.53
2023-04-06T02:59:35.002Z,101224.34
2023-04-06T03:02:14.540Z,101228.91
2023-04-06T03:04:42.834Z,101230.75
2023-04-06T03:07:19.624Z,101229.09
2023-04-06T03:09:46.555Z,101228.25
2023-04-06T03:12:13.347Z,101232.66
2023-04-06T03:15:00.650Z,101225.66
2023-04-06T03:17:27.583Z,101225.72
2023-04-06T03:19:57.397Z,101221.38
2023-04-06T03:22:24.412Z,101223.16
2023-04-06T03:24:51.528Z,101229.44
2023-04-06T03:27:18.501Z,101242.53
2023-04-06T03:29:47.097Z,101236.63
2023-04-06T03:32:19.267Z,101240.19
2023-04-06T03:34:46.559Z,101237.63
2023-04-06T03:37:13.339Z,101243.75
2023-04-06T03:39:46.619Z,101247.34
2023-04-06T03:42:18.280Z,101243.09
2023-04-06T03:44:51.277Z,101247.38
2023-04-06T03:47:18.627Z,101249.22
2023-04-06T03:49:45.927Z,101248.34
2023-04-06T03:52:14.360Z,101254.53
2023-04-06T03:54:41.401Z,101258.06
2023-04-06T03:57:11.044Z,101253.66
2023-04-06T03:59:37.998Z,101254.63
2023-04-06T04:02:04.876Z,101259.91
2023-04-06T04:04:31.817Z,101270.47
2023-04-06T04:06:58.612Z,101260.00
2023-04-06T04:09:26.785Z,101274.88
2023-04-06T04:11:55.264Z,101264.44
2023-04-06T04:14:22.182Z,101266.31
2023-04-06T04:16:48.969Z,101268.97
2023-04-06T04:19:15.891Z,101271.66
2023-04-06T04:21:46.357Z,101279.50
2023-04-06T04:24:16.585Z,101272.56
2023-04-06T04:26:43.374Z,101273.50
2023-04-06T04:29:10.949Z,101283.00
2023-04-06T04:31:38.810Z,101281.34
2023-04-06T04:34:15.400Z,101279.59
2023-04-06T04:36:44.668Z,101269.13
2023-04-06T04:39:16.649Z,101276.97
2023-04-06T04:41:48.182Z,101280.50
2023-04-06T04:44:15.250Z,101275.25
2023-04-06T04:46:44.681Z,101276.16
2023-04-06T04:49:40.148Z,101273.63
2023-04-06T04:52:24.070Z,101284.19
2023-04-06T04:55:25.476Z,101281.56
2023-04-06T04:58:18.040Z,101285.00
2023-04-06T05:13:02.131Z,101291.22
2023-04-06T05:15:29.285Z,101288.56
2023-04-06T05:34:10.991Z,101291.63
2023-04-06T05:38:04.849Z,101295.06
2023-04-06T05:43:34.608Z,101290.38
2023-04-06T05:46:08.925Z,101302.53
2023-04-06T05:50:12.648Z,101309.41
2023-04-06T05:53:08.396Z,101295.94
2023-04-06T05:58:57.754Z,101294.56
2023-04-06T06:01:45.851Z,101297.91
2023-04-06T06:07:16.346Z,101295.66
2023-04-06T06:09:48.401Z,101293.78
2023-04-06T06:12:23.449Z,101302.56
2023-04-06T06:14:51.151Z,101296.31
2023-04-06T06:17:19.149Z,101297.16
2023-04-06T06:19:48.031Z,101299.59
2023-04-06T06:22:16.039Z,101299.56
2023-04-06T06:24:46.203Z,101303.00
2023-04-06T06:27:13.751Z,101300.28
2023-04-06T06:29:40.599Z,101302.00
2023-04-06T06:32:07.623Z,101301.00
2023-04-06T06:34:34.660Z,101303.72
2023-04-06T06:37:04.806Z,101308.88
2023-04-06T06:39:32.204Z,101309.53
2023-04-06T06:42:01.807Z,101306.06
2023-04-06T06:44:46.532Z,101312.06
2023-04-06T06:47:13.421Z,101313.72
2023-04-06T06:49:40.346Z,101317.03
2023-04-06T06:52:07.558Z,101324.78
2023-04-06T06:54:34.585Z,101317.69
2023-04-06T06:57:01.760Z,101315.69
2023-04-06T06:59:29.066Z,101319.75
2023-04-06T07:01:56.517Z,101322.91
2023-04-06T07:04:23.437Z,101322.78
2023-04-06T07:06:51.804Z,101315.59
2023-04-06T07:09:18.595Z,101321.69
2023-04-06T07:11:45.672Z,101319.91
2023-04-06T07:14:13.077Z,101318.03
2023-04-06T07:16:40.016Z,101316.09
2023-04-06T07:19:07.073Z,101316.56
2023-04-06T07:21:33.955Z,101319.06
2023-04-06T07:24:01.292Z,101315.53
2023-04-06T07:26:28.221Z,101318.13
2023-04-06T07:28:55.117Z,101321.94
2023-04-06T07:34:47.637Z,101311.31
2023-04-06T07:37:14.614Z,101317.63
2023-04-06T07:39:42.163Z,101316.94
2023-04-06T07:42:09.199Z,101315.78
2023-04-06T07:51:19.993Z,101309.53
2023-04-06T07:54:12.572Z,101309.44
2023-04-06T07:56:39.447Z,101310.16
2023-04-06T07:59:59.556Z,101309.44
2023-04-06T08:03:01.909Z,101311.53
2023-04-06T08:09:18.593Z,101309.19
2023-04-06T08:14:48.320Z,101319.03
2023-04-06T08:17:45.382Z,101313.50
2023-04-06T08:21:10.762Z,101320.91
2023-04-06T08:24:43.241Z,101321.03
2023-04-06T08:27:28.955Z,101309.44
2023-04-06T08:32:47.499Z,101315.81
2023-04-06T08:35:51.564Z,101309.16
2023-04-06T08:38:34.430Z,101306.41
2023-04-06T08:41:23.757Z,101313.75
2023-04-06T08:47:34.065Z,101303.53
2023-04-06T08:54:13.517Z,101311.53
2023-04-06T09:08:27.819Z,101305.66
2023-04-06T09:10:54.840Z,101313.91
2023-04-06T09:17:06.559Z,101306.28
2023-04-06T09:19:34.422Z,101307.84
2023-04-06T09:22:10.052Z,101303.91
2023-04-06T09:24:50.703Z,101302.38
2023-04-06T09:27:18.114Z,101299.56
2023-04-06T09:29:45.879Z,101302.78
2023-04-06T09:32:13.065Z,101301.09
2023-04-06T09:34:40.178Z,101293.81
2023-04-06T09:37:33.267Z,101286.34
2023-04-06T09:40:04.097Z,101285.91
2023-04-06T09:42:31.188Z,101292.25
2023-04-06T09:44:58.220Z,101279.19
2023-04-06T09:47:44.370Z,101283.88
2023-04-06T09:50:12.163Z,101272.31
2023-04-06T09:52:47.051Z,101271.56
2023-04-06T09:55:35.289Z,101271.44
2023-04-06T09:58:06.307Z,101269.00
2023-04-06T10:00:34.186Z,101271.28
2023-04-06T10:03:05.666Z,101278.22
2023-04-06T10:06:03.357Z,101270.75
2023-04-06T10:09:10.230Z,101269.81
2023-04-06T10:11:37.573Z,101267.81
2023-04-06T10:14:04.628Z,101270.97
2023-04-06T10:16:37.086Z,101271.19
2023-04-06T10:22:41.675Z,101268.25
2023-04-06T10:25:12.357Z,101268.69
2023-04-06T10:28:29.116Z,101268.81
2023-04-06T10:34:13.681Z,101269.47
2023-04-06T10:40:23.171Z,101275.84
2023-04-06T10:42:54.469Z,101272.19
2023-04-06T10:48:41.623Z,101259.78
2023-04-06T10:51:21.582Z,101257.31
2023-04-06T10:54:16.693Z,101260.41
2023-04-06T10:56:43.690Z,101254.56
2023-04-06T11:05:16.908Z,101259.38
2023-04-06T11:07:43.798Z,101247.91
2023-04-06T11:10:16.573Z,101256.47
2023-04-06T11:12:45.539Z,101254.50
2023-04-06T11:15:12.542Z,101244.75
2023-04-06T11:17:39.722Z,101243.06
2023-04-06T11:20:10.655Z,101241.69
2023-04-06T11:23:25.425Z,101242.06
2023-04-06T11:26:01.747Z,101233.09
2023-04-06T11:30:53.748Z,101238.19
2023-04-06T11:32:24.916Z,101234.31
2023-04-06T11:35:37.781Z,101219.16
2023-04-06T11:40:57.008Z,101223.13
2023-04-06T11:50:34.269Z,101214.91
2023-04-06T12:01:13.913Z,101208.06
2023-04-06T12:04:03.577Z,101206.59
2023-04-06T12:10:02.983Z,101212.56
2023-04-06T12:12:53.389Z,101206.97
2023-04-06T12:15:35.361Z,101197.59
2023-04-06T12:19:14.919Z,101203.69
2023-04-06T12:25:21.937Z,101200.44
2023-04-06T12:28:49.268Z,101198.63
2023-04-06T12:31:19.304Z,101193.44
2023-04-06T12:34:26.538Z,101196.09
2023-04-06T12:36:55.545Z,101186.00
2023-04-06T12:39:22.951Z,101189.84
2023-04-06T12:41:49.984Z,101181.53
2023-04-06T12:44:36.698Z,101186.03
2023-04-06T12:47:27.773Z,101186.06
2023-04-06T12:50:13.978Z,101178.75
2023-04-06T12:54:02.603Z,101177.44
2023-04-06T12:57:17.774Z,101186.72
2023-04-06T13:00:10.721Z,101180.16
2023-04-06T13:03:04.320Z,101183.56
2023-04-06T13:06:13.573Z,101171.31
2023-04-06T13:09:00.844Z,101169.34
2023-04-06T13:14:35.899Z,101169.06
2023-04-06T13:17:10.750Z,101179.59
2023-04-06T13:43:56.032Z,101152.19
2023-04-06T13:46:42.600Z,101157.97
2023-04-06T13:49:50.709Z,101154.81
2023-04-06T13:52:17.811Z,101145.81
2023-04-06T14:26:25.882Z,101129.31
2023-04-06T14:28:53.184Z,101117.16
2023-04-06T14:34:15.019Z,101117.84
2023-04-06T14:36:45.254Z,101126.28
2023-04-06T14:39:12.262Z,101118.47
2023-04-06T19:10:45.619Z,101197.19
2023-04-06T19:13:12.469Z,101199.59
2023-04-06T19:15:40.622Z,101194.81
2023-04-06T19:18:07.450Z,101198.03
2023-04-06T19:20:35.575Z,101187.53
2023-04-06T19:23:03.988Z,101187.75
2023-04-06T19:25:30.823Z,101187.78
2023-04-06T19:27:57.691Z,101190.66
2023-04-06T19:30:24.920Z,101197.53
2023-04-06T19:32:51.817Z,101186.22
2023-04-06T19:35:18.676Z,101188.16
2023-04-06T19:37:51.942Z,101182.84
2023-04-06T19:40:18.949Z,101190.44
2023-04-06T19:42:45.770Z,101189.00
2023-04-06T19:45:12.804Z,101191.03
2023-04-06T19:47:39.695Z,101189.97
2023-04-06T19:50:07.712Z,101196.66
2023-04-06T19:52:34.589Z,101191.09
2023-04-06T19:55:01.572Z,101188.59
2023-04-06T19:57:28.441Z,101189.91
2023-04-06T19:59:55.654Z,101190.69
2023-04-06T20:02:22.674Z,101190.63
2023-04-06T20:04:49.584Z,101195.31
2023-04-06T20:07:16.508Z,101192.63
2023-04-06T20:09:43.310Z,101196.81
2023-04-06T20:12:10.107Z,101192.19
2023-04-06T20:14:36.936Z,101189.81
2023-04-06T20:17:04.048Z,101189.47
2023-04-06T20:19:30.938Z,101194.56
2023-04-06T20:21:59.005Z,101192.72
2023-04-06T20:24:25.878Z,101196.28
2023-04-06T20:26:53.142Z,101193.16
2023-04-06T20:29:19.986Z,101201.09
2023-04-06T20:31:47.313Z,101198.19
2023-04-06T20:34:14.406Z,101192.84
2023-04-06T20:36:41.496Z,101198.81
2023-04-06T20:39:08.327Z,101192.09
2023-04-06T20:41:35.398Z,101187.56
2023-04-06T20:44:02.219Z,101190.28
2023-04-06T20:46:29.145Z,101195.44
2023-04-06T20:48:56.132Z,101197.28
2023-04-06T20:51:26.193Z,101188.53
2023-04-06T20:53:53.116Z,101185.34
2023-04-06T20:56:22.113Z,101183.44
2023-04-06T20:58:49.103Z,101190.63
2023-04-06T21:01:16.296Z,101188.28
2023-04-06T21:03:43.572Z,101181.22
2023-04-06T21:06:10.590Z,101177.84
2023-04-06T21:08:37.748Z,101190.53
2023-04-06T21:11:06.619Z,101177.63
2023-04-06T21:13:33.921Z,101183.31
2023-04-06T21:16:01.774Z,101185.84
2023-04-06T21:18:30.101Z,101182.22
2023-04-06T21:20:56.940Z,101181.75
2023-04-06T21:23:23.777Z,101183.56
2023-04-06T21:25:52.211Z,101186.91
2023-04-06T21:28:19.263Z,101187.81
2023-04-06T21:30:46.092Z,101182.63
2023-04-06T21:33:12.883Z,101176.63
2023-04-06T21:35:40.330Z,101180.09
2023-04-06T21:38:07.434Z,101184.81
2023-04-06T21:40:34.199Z,101185.94
2023-04-06T21:43:01.002Z,101188.63
2023-04-06T21:45:27.811Z,101185.25
2023-04-06T21:47:54.736Z,101189.88
2023-04-06T21:50:21.808Z,101184.78
2023-04-06T21:52:48.596Z,101184.78
2023-04-06T21:55:15.467Z,101180.28
2023-04-06T21:57:42.997Z,101179.63
2023-04-06T22:00:10.559Z,101185.69
2023-04-06T22:02:44.775Z,101182.59
2023-04-06T22:05:11.875Z,101184.41
2023-04-06T22:07:38.786Z,101183.50
2023-04-06T22:10:05.849Z,101178.56
2023-04-06T22:12:32.657Z,101168.09
2023-04-06T22:14:59.394Z,101175.31
2023-04-06T22:17:26.491Z,101178.81
2023-04-06T22:19:53.350Z,101178.00
2023-04-06T22:22:20.123Z,101171.97
2023-04-06T22:24:47.015Z,101171.09
2023-04-06T22:27:13.899Z,101164.34
2023-04-06T22:29:40.997Z,101164.38
2023-04-06T22:32:07.893Z,101167.09
2023-04-06T22:34:34.771Z,101175.97
2023-04-06T22:37:01.555Z,101168.94
2023-04-06T22:39:28.332Z,101170.69
2023-04-06T22:41:55.160Z,101165.66
2023-04-06T22:44:21.964Z,101165.81
2023-04-06T22:46:48.842Z,101159.81
2023-04-06T22:49:15.823Z,101155.53
2023-04-06T22:51:42.610Z,101151.31
2023-04-06T22:54:09.753Z,101155.69
2023-04-06T22:56:36.608Z,101158.31
2023-04-06T22:59:03.939Z,101160.09
2023-04-06T23:01:30.942Z,101159.28
2023-04-06T23:03:58.143Z,101159.22
2023-04-06T23:06:25.394Z,101154.97
2023-04-06T23:08:55.192Z,101155.88
2023-04-06T23:11:22.765Z,101150.84
2023-04-06T23:13:49.519Z,101151.63
2023-04-06T23:16:16.434Z,101147.38
2023-04-06T23:18:43.368Z,101156.09
2023-04-06T23:21:10.139Z,101146.41
2023-04-06T23:23:36.958Z,101142.09
2023-04-06T23:26:03.801Z,101142.09
2023-04-06T23:28:30.757Z,101149.22
2023-04-06T23:30:57.569Z,101147.53
2023-04-06T23:33:24.545Z,101163.06
2023-04-06T23:35:52.322Z,101153.69
2023-04-06T23:38:19.097Z,101156.56
2023-04-06T23:40:45.858Z,101157.47
2023-04-06T23:43:12.789Z,101154.66
2023-04-06T23:45:40.081Z,101150.38
2023-04-06T23:48:06.911Z,101154.47
2023-04-06T23:50:35.097Z,101143.81
2023-04-06T23:53:03.600Z,101151.56
2023-04-06T23:55:30.691Z,101150.84
2023-04-06T23:57:57.480Z,101151.84
